Terminal Aerodrome Forecast
Issued by NWS

Home | Current Version | Previous Version | Text Only | Print | Product List | Glossary On
Versions: 1 2 3 4 5 6 7 8 9 10 11 12 13 14 15 16 17 18 19 20 21 22 23 24 25 26
000
FTUS44 KOUN 191132
TAFPNC
TAF
KPNC 191132Z 1912/2012 12006KT 3SM BR OVC008
      TEMPO 1912/1915 1SM BR OVC004
     FM191700 15009KT 5SM BR OVC010
     FM192100 16013KT P6SM OVC015
     FM200300 14011KT 4SM -SHRA BR OVC008
      TEMPO 2004/2008 2SM TSRA BR SCT008 OVC015CB=

USA.gov is the U.S. government's official web portal to all federal, state and local government web resources and services.